Time;durP1;ratioP1;P1;durP2;ratioP2;P2;SDS_P1;SDS_P2;PMS_P1;PMS_P2;Temp;Humidity;BMP_temperature;BMP_pressure;BME280_temperature;BME280_humidity;BME280_pressure;Samples;Min_cycle;Max_cycle;Signal;HPM_P1;HPM_P2
2023/09/25 00:00:46;;;;;;;4.03;3.50;;;;;;;12.22;61.50;96950.66;4970672;28;20177;-69
2023/09/25 00:03:11;;;;;;;3.90;2.93;;;;;;;11.74;63.05;96969.22;4970589;28;20413;-69
2023/09/25 00:05:37;;;;;;;6.47;3.13;;;;;;;12.02;61.87;96962.00;4970335;28;20181;-69
2023/09/25 00:08:03;;;;;;;4.63;3.50;;;;;;;12.05;61.71;96964.50;4970724;28;20216;-69
2023/09/25 00:10:31;;;;;;;5.07;3.67;;;;;;;12.21;61.41;96966.50;4970502;28;20975;-69
2023/09/25 00:12:57;;;;;;;5.13;4.20;;;;;;;12.13;60.93;96964.19;4970344;28;20417;-69
2023/09/25 00:15:22;;;;;;;6.50;5.83;;;;;;;12.08;61.15;96968.78;4969697;28;20443;-69
2023/09/25 00:17:48;;;;;;;5.17;3.63;;;;;;;11.95;61.70;96968.44;4970203;28;20312;-69
2023/09/25 00:20:14;;;;;;;6.10;3.90;;;;;;;12.08;61.14;96966.16;4970038;28;20178;-68
2023/09/25 00:22:40;;;;;;;4.20;3.50;;;;;;;12.06;61.05;96955.69;4970301;28;20420;-69
2023/09/25 00:25:07;;;;;;;5.23;3.30;;;;;;;11.73;62.23;96970.16;4970247;28;20181;-69
2023/09/25 00:27:33;;;;;;;3.80;3.07;;;;;;;12.02;61.65;96962.00;4969472;28;20428;-69
2023/09/25 00:29:59;;;;;;;4.33;3.40;;;;;;;11.94;61.68;96965.88;4969842;28;20421;-69
2023/09/25 00:32:24;;;;;;;12.03;4.00;;;;;;;12.05;61.07;96964.50;4970061;28;20189;-69
2023/09/25 00:34:50;;;;;;;4.50;3.33;;;;;;;12.07;61.71;96957.41;4970317;28;20169;-69
2023/09/25 00:37:15;;;;;;;6.67;3.70;;;;;;;12.16;60.97;96961.41;4969314;28;20213;-69
2023/09/25 00:39:42;;;;;;;4.77;3.80;;;;;;;12.20;61.02;96960.38;4969656;28;20181;-68
2023/09/25 00:42:08;;;;;;;5.67;3.80;;;;;;;12.25;60.97;96968.09;4969804;28;20178;-69
2023/09/25 00:44:33;;;;;;;5.43;3.70;;;;;;;12.14;61.79;96965.03;4969687;28;20908;-69
2023/09/25 00:46:59;;;;;;;9.87;3.50;;;;;;;12.20;61.67;96960.38;4969210;28;20425;-69
2023/09/25 00:49:26;;;;;;;7.73;3.50;;;;;;;12.11;61.55;96965.19;4969467;28;20190;-69
2023/09/25 00:51:52;;;;;;;4.40;3.27;;;;;;;12.10;61.62;96966.97;4969250;28;20413;-70
2023/09/25 00:54:18;;;;;;;6.60;3.60;;;;;;;12.15;61.21;96958.88;4969619;28;20760;-70
2023/09/25 00:56:45;;;;;;;6.83;3.27;;;;;;;12.13;61.44;96952.81;4969163;28;21268;-70
2023/09/25 00:59:11;;;;;;;4.37;3.47;;;;;;;12.07;61.74;96949.53;4969422;28;20429;-69
2023/09/25 01:01:37;;;;;;;40.90;6.03;;;;;;;12.17;61.33;96959.66;4969346;28;20866;-70
2023/09/25 01:04:03;;;;;;;14.27;4.53;;;;;;;11.99;62.15;96956.00;4969468;28;20409;-70
2023/09/25 01:06:29;;;;;;;6.07;3.87;;;;;;;11.97;62.05;96953.44;4969195;28;21096;-69
2023/09/25 01:08:54;;;;;;;5.13;3.40;;;;;;;11.80;62.45;96950.59;4968230;28;20447;-68
2023/09/25 01:11:20;;;;;;;5.07;3.63;;;;;;;11.41;63.88;96953.88;4969544;28;20279;-69
2023/09/25 01:13:45;;;;;;;5.83;3.23;;;;;;;11.68;63.29;96949.31;4969438;28;20823;-69
2023/09/25 01:16:11;;;;;;;11.43;4.20;;;;;;;11.68;63.06;96946.69;4969108;28;20205;-68
2023/09/25 01:18:36;;;;;;;8.60;3.80;;;;;;;11.71;63.16;96950.97;4969385;28;20197;-70
2023/09/25 01:21:03;;;;;;;4.20;3.30;;;;;;;11.69;62.36;96947.53;4969661;28;20177;-70
2023/09/25 01:23:28;;;;;;;5.00;3.30;;;;;;;11.78;62.88;96937.50;4969551;28;20176;-67
2023/09/25 01:25:54;;;;;;;4.63;3.50;;;;;;;11.41;63.64;96935.50;4968925;28;20417;-69
2023/09/25 01:28:19;;;;;;;4.83;3.70;;;;;;;11.75;63.01;96935.00;4968603;28;20197;-69
2023/09/25 01:30:45;;;;;;;4.23;3.63;;;;;;;11.61;62.95;96935.53;4969129;28;20185;-70
2023/09/25 01:33:10;;;;;;;8.17;4.43;;;;;;;11.76;62.54;96936.69;4969132;28;20203;-70
2023/09/25 01:35:35;;;;;;;4.83;3.33;;;;;;;11.57;63.47;96935.72;4968623;28;20183;-68
2023/09/25 01:38:04;;;;;;;6.33;3.27;;;;;;;11.76;62.94;96941.13;4968822;28;20197;-69
2023/09/25 01:40:31;;;;;;;4.67;3.70;;;;;;;11.66;62.88;96938.00;4969166;28;20181;-70
2023/09/25 01:42:57;;;;;;;6.37;3.60;;;;;;;11.42;63.58;96937.19;4968907;28;20920;-69
2023/09/25 01:45:23;;;;;;;5.00;3.97;;;;;;;11.47;62.92;96937.84;4968709;28;20475;-69
2023/09/25 01:47:51;;;;;;;6.43;3.70;;;;;;;11.21;64.04;96931.81;4968990;28;20436;-69
2023/09/25 01:50:23;;;;;;;5.40;3.70;;;;;;;11.27;63.99;96941.28;4968944;28;20425;-69
2023/09/25 01:52:52;;;;;;;5.50;3.30;;;;;;;11.28;63.43;96932.47;4968842;28;20413;-69
2023/09/25 01:55:19;;;;;;;6.57;4.33;;;;;;;11.25;63.14;96929.97;4967968;28;20802;-69
2023/09/25 01:57:44;;;;;;;4.40;3.40;;;;;;;11.22;63.63;96933.56;4968383;28;20469;-68
2023/09/25 02:00:10;;;;;;;5.30;3.53;;;;;;;11.28;63.26;96928.97;4968366;28;20426;-69
2023/09/25 02:02:40;;;;;;;11.37;3.80;;;;;;;11.47;62.95;96923.88;4968625;28;20174;-69
2023/09/25 02:05:06;;;;;;;5.50;3.57;;;;;;;11.39;62.82;96924.19;4967865;28;20240;-69
2023/09/25 02:07:32;;;;;;;4.90;4.00;;;;;;;11.24;62.92;96930.84;4967844;28;20431;-69
2023/09/25 02:09:58;;;;;;;5.00;3.40;;;;;;;11.09;64.10;96923.56;4968101;28;20975;-69
2023/09/25 02:12:23;;;;;;;8.07;4.10;;;;;;;11.11;63.87;96924.38;4967993;28;20425;-70
2023/09/25 02:14:51;;;;;;;4.10;3.33;;;;;;;11.19;63.45;96923.16;4968109;28;20252;-69
2023/09/25 02:17:16;;;;;;;4.97;3.87;;;;;;;11.22;63.46;96919.56;4967015;28;20233;-69
2023/09/25 02:19:42;;;;;;;4.93;3.17;;;;;;;11.34;63.25;96916.47;4967772;28;20552;-69
2023/09/25 02:22:07;;;;;;;4.37;3.50;;;;;;;11.42;63.80;96914.38;4967783;28;20184;-69
2023/09/25 02:24:37;;;;;;;4.60;4.00;;;;;;;11.33;63.40;96904.22;4967939;28;20621;-69
2023/09/25 02:27:02;;;;;;;6.27;4.57;;;;;;;11.27;63.60;96908.84;4967195;28;20220;-68
2023/09/25 02:29:28;;;;;;;5.50;4.00;;;;;;;11.36;63.17;96908.50;4967623;28;21000;-69
2023/09/25 02:31:54;;;;;;;5.70;3.67;;;;;;;11.45;63.18;96911.63;4967554;28;20185;-69
2023/09/25 02:34:20;;;;;;;4.40;3.73;;;;;;;11.36;63.53;96903.25;4967496;28;20271;-70
2023/09/25 02:36:45;;;;;;;4.70;4.10;;;;;;;11.28;63.96;96905.34;4967146;28;20531;-70
2023/09/25 02:39:11;;;;;;;5.63;3.93;;;;;;;11.22;64.20;96909.91;4967608;28;20264;-70
2023/09/25 02:41:36;;;;;;;4.10;3.70;;;;;;;11.29;64.23;96904.41;4967612;28;20173;-69
2023/09/25 02:44:02;;;;;;;5.30;3.90;;;;;;;11.31;64.26;96907.84;4967459;28;20189;-70
2023/09/25 02:46:27;;;;;;;6.07;3.70;;;;;;;11.28;64.02;96906.19;4967213;28;20209;-70
2023/09/25 02:48:52;;;;;;;8.03;4.37;;;;;;;11.16;64.33;96906.66;4967424;28;20560;-69
2023/09/25 02:51:18;;;;;;;7.47;4.70;;;;;;;11.11;64.46;96906.00;4966139;28;20173;-70
2023/09/25 02:53:43;;;;;;;5.10;4.30;;;;;;;11.22;64.56;96909.06;4967791;28;20202;-70
2023/09/25 02:56:08;;;;;;;7.50;4.40;;;;;;;11.21;64.52;96902.94;4967927;28;20172;-70
2023/09/25 02:58:34;;;;;;;5.40;3.83;;;;;;;11.33;63.77;96909.47;4967088;28;20740;-70
2023/09/25 03:01:00;;;;;;;5.83;3.90;;;;;;;11.23;63.66;96908.97;4967623;28;20224;-70
2023/09/25 03:03:27;;;;;;;4.57;3.57;;;;;;;11.34;63.18;96905.06;4967566;28;20216;-70
2023/09/25 03:05:53;;;;;;;5.50;4.63;;;;;;;11.26;62.93;96907.16;4967050;28;20961;-70
2023/09/25 03:08:18;;;;;;;8.30;4.00;;;;;;;11.38;62.50;96902.28;4967335;28;20448;-70
2023/09/25 03:10:43;;;;;;;7.83;4.23;;;;;;;11.40;62.60;96908.31;4967307;28;20173;-68
2023/09/25 03:13:09;;;;;;;5.93;4.37;;;;;;;11.33;62.59;96903.38;4967659;28;20181;-70
2023/09/25 03:15:34;;;;;;;6.63;3.50;;;;;;;11.33;62.38;96901.59;4967210;28;20280;-69
2023/09/25 03:18:00;;;;;;;5.00;4.10;;;;;;;11.29;62.52;96904.41;4967177;28;20583;-69
2023/09/25 03:20:26;;;;;;;4.73;4.33;;;;;;;11.23;62.32;96908.97;4967662;28;20221;-70
2023/09/25 03:22:51;;;;;;;4.40;3.60;;;;;;;11.31;62.55;96894.69;4967630;28;20177;-69
2023/09/25 03:25:17;;;;;;;17.47;4.37;;;;;;;11.31;62.70;96905.22;4967083;28;20957;-69
2023/09/25 03:27:43;;;;;;;4.50;3.90;;;;;;;10.78;64.22;96899.28;4967230;28;20201;-68
2023/09/25 03:30:09;;;;;;;6.47;4.30;;;;;;;10.94;63.62;96907.47;4967509;28;20181;-69
2023/09/25 03:32:34;;;;;;;5.17;4.20;;;;;;;11.14;63.77;96906.72;4967375;28;20428;-69
2023/09/25 03:35:00;;;;;;;14.20;4.70;;;;;;;11.16;63.53;96902.25;4967519;28;20500;-69
2023/09/25 03:37:26;;;;;;;6.00;4.37;;;;;;;11.20;63.56;96898.59;4966869;28;20201;-69
2023/09/25 03:39:51;;;;;;;6.23;4.47;;;;;;;11.15;64.11;96899.69;4967052;28;20189;-69
2023/09/25 03:42:16;;;;;;;5.90;3.63;;;;;;;11.17;64.18;96896.09;4966892;28;20244;-70
2023/09/25 03:44:42;;;;;;;6.50;4.60;;;;;;;11.27;63.97;96903.59;4967132;28;20216;-69
2023/09/25 03:47:07;;;;;;;5.80;4.03;;;;;;;11.16;63.74;96904.03;4966599;28;20279;-70
2023/09/25 03:49:32;;;;;;;4.93;3.73;;;;;;;11.21;63.57;96897.69;4966513;28;20194;-70
2023/09/25 03:51:58;;;;;;;6.10;5.17;;;;;;;11.29;63.48;96897.41;4966895;28;20201;-70
2023/09/25 03:54:23;;;;;;;7.43;4.23;;;;;;;11.28;63.73;96894.81;4967275;28;20174;-70
2023/09/25 03:56:48;;;;;;;5.00;4.40;;;;;;;11.28;63.74;96892.19;4966605;28;20216;-69
2023/09/25 03:59:14;;;;;;;6.33;4.00;;;;;;;11.26;63.77;96901.91;4966861;28;20173;-70
2023/09/25 04:01:39;;;;;;;6.83;5.17;;;;;;;11.04;64.78;96896.63;4966909;28;20236;-70
2023/09/25 04:04:06;;;;;;;8.30;4.20;;;;;;;10.93;64.33;96894.38;4966703;28;20220;-69
2023/09/25 04:06:32;;;;;;;7.03;4.20;;;;;;;10.93;65.19;96899.63;4966737;28;20588;-69
2023/09/25 04:08:57;;;;;;;7.40;4.80;;;;;;;10.81;66.06;96901.81;4966617;28;21070;-68
2023/09/25 04:11:23;;;;;;;11.47;4.70;;;;;;;11.05;64.96;96900.94;4966578;28;20209;-70
2023/09/25 04:13:48;;;;;;;8.80;5.00;;;;;;;11.12;65.12;96899.81;4966823;28;20594;-69
2023/09/25 04:16:14;;;;;;;6.97;5.00;;;;;;;10.88;65.35;96901.59;4966599;28;20184;-69
2023/09/25 04:18:42;;;;;;;9.07;4.30;;;;;;;11.00;65.59;96893.25;4966847;28;20209;-69
2023/09/25 04:21:11;;;;;;;6.93;4.20;;;;;;;10.54;66.80;96900.19;4965657;28;20181;-71
2023/09/25 04:23:36;;;;;;;7.50;4.70;;;;;;;10.89;65.51;96891.03;4960735;28;20428;-69
2023/09/25 04:26:03;;;;;;;7.20;4.40;;;;;;;10.88;65.98;96897.19;4963920;28;20472;-69
2023/09/25 04:28:29;;;;;;;6.70;4.33;;;;;;;11.01;65.61;96893.19;4963093;28;20197;-69
2023/09/25 04:30:57;;;;;;;5.57;4.60;;;;;;;11.10;65.86;96897.25;4962392;28;20440;-68
2023/09/25 04:33:23;;;;;;;6.93;4.10;;;;;;;11.09;65.33;96900.78;4967682;28;20519;-69
2023/09/25 04:35:48;;;;;;;4.93;4.07;;;;;;;10.96;66.02;96896.88;4968831;28;20463;-69
2023/09/25 04:38:13;;;;;;;9.00;4.87;;;;;;;11.06;65.50;96894.81;4965125;28;21056;-69
2023/09/25 04:40:41;;;;;;;18.23;5.07;;;;;;;10.98;65.96;96902.94;4972831;28;20579;-70
2023/09/25 04:43:06;;;;;;;8.10;4.63;;;;;;;10.97;65.79;96902.09;4978128;28;20209;-69
2023/09/25 04:45:32;;;;;;;10.10;5.20;;;;;;;11.02;65.99;96909.81;4981008;28;21094;-70
2023/09/25 04:47:58;;;;;;;7.00;4.90;;;;;;;10.94;66.20;96904.00;4972075;28;20212;-68
2023/09/25 04:50:23;;;;;;;9.93;4.57;;;;;;;11.01;66.28;96911.59;4966667;28;20185;-69
2023/09/25 04:52:49;;;;;;;17.40;6.80;;;;;;;10.96;66.05;96904.78;4968757;28;20444;-70
2023/09/25 04:55:15;;;;;;;8.47;4.73;;;;;;;10.64;67.38;96909.44;4965271;28;20185;-69
2023/09/25 04:57:42;;;;;;;15.70;5.43;;;;;;;10.73;67.00;96901.25;4966811;28;20208;-70
2023/09/25 05:00:21;;;;;;;20.27;5.70;;;;;;;10.74;67.11;96902.09;4967597;28;20440;-70
2023/09/25 05:02:48;;;;;;;7.60;4.27;;;;;;;10.75;66.96;96904.66;4968013;28;20436;-69
2023/09/25 05:05:17;;;;;;;41.63;9.73;;;;;;;10.62;67.24;96903.38;4967457;28;20429;-71
2023/09/25 05:07:44;;;;;;;7.00;4.30;;;;;;;10.56;67.58;96901.00;4966876;28;20556;-68
2023/09/25 05:10:12;;;;;;;8.70;5.27;;;;;;;10.76;66.87;96901.13;4967034;28;20443;-69
2023/09/25 05:12:39;;;;;;;37.63;9.60;;;;;;;10.76;66.71;96893.25;4960975;28;20468;-69
2023/09/25 05:15:07;;;;;;;18.60;6.33;;;;;;;10.87;65.97;96899.88;4967808;28;20445;-70
2023/09/25 05:17:36;;;;;;;67.47;15.27;;;;;;;10.94;66.46;96896.97;4966982;28;20449;-70
2023/09/25 05:20:10;;;;;;;15.90;5.90;;;;;;;11.38;65.37;96899.66;4967201;28;20429;-69
2023/09/25 05:22:40;;;;;;;21.63;6.30;;;;;;;11.93;63.57;96893.13;4964722;28;20436;-70
2023/09/25 05:25:09;;;;;;;12.03;5.97;;;;;;;12.32;62.21;96897.63;4966714;28;20436;-69
2023/09/25 05:27:35;;;;;;;24.73;9.30;;;;;;;12.76;60.40;96897.50;4966633;28;20480;-70
2023/09/25 05:30:02;;;;;;;40.00;8.20;;;;;;;13.33;59.22;96890.50;4964230;28;20429;-69
2023/09/25 05:32:27;;;;;;;27.27;6.30;;;;;;;13.89;57.03;96886.91;4964127;28;20444;-70
2023/09/25 05:34:54;;;;;;;54.37;9.20;;;;;;;14.11;56.12;96889.34;4964420;28;20429;-70
2023/09/25 05:37:19;;;;;;;17.60;5.47;;;;;;;14.85;54.02;96895.28;4964121;28;20201;-67
2023/09/25 05:39:44;;;;;;;10.17;5.40;;;;;;;15.13;52.94;96886.72;4963497;28;20519;-69
2023/09/25 05:42:10;;;;;;;11.57;5.23;;;;;;;15.82;50.98;96894.34;4963293;28;20599;-69
2023/09/25 05:44:35;;;;;;;5.03;4.23;;;;;;;15.56;51.01;96895.78;4961150;28;20220;-70
2023/09/25 05:47:00;;;;;;;12.03;6.57;;;;;;;16.36;49.11;96885.94;4965590;28;20201;-70
2023/09/25 05:49:26;;;;;;;7.37;5.90;;;;;;;16.50;49.12;96888.59;4966048;28;20179;-69
2023/09/25 05:51:53;;;;;;;16.03;5.63;;;;;;;17.09;46.35;96890.41;4965670;28;20609;-70
2023/09/25 05:54:22;;;;;;;5.13;3.90;;;;;;;17.70;44.98;96891.81;4965993;28;20260;-70
2023/09/25 05:56:48;;;;;;;28.17;6.13;;;;;;;17.83;44.72;96877.78;4965022;28;20425;-69
2023/09/25 05:59:14;;;;;;;6.83;4.93;;;;;;;17.49;45.45;96888.72;4958360;28;20440;-71
2023/09/25 06:01:39;;;;;;;9.50;5.10;;;;;;;18.27;43.67;96881.94;4963186;28;20193;-69
2023/09/25 06:04:05;;;;;;;22.93;6.17;;;;;;;19.03;43.94;96883.84;4967593;28;20449;-68
2023/09/25 06:06:33;;;;;;;6.30;4.77;;;;;;;19.83;41.79;96880.81;4961793;28;21061;-68
2023/09/25 06:08:58;;;;;;;6.97;4.20;;;;;;;20.06;40.16;96877.28;4963303;28;21011;-70
2023/09/25 06:11:24;;;;;;;5.83;4.13;;;;;;;20.04;39.57;96881.03;4963139;28;20444;-70
2023/09/25 06:13:49;;;;;;;10.90;4.20;;;;;;;19.86;40.25;96876.09;4963608;28;20169;-70
2023/09/25 06:16:16;;;;;;;4.07;3.60;;;;;;;20.12;39.21;96880.47;4963617;28;20276;-70
2023/09/25 06:18:42;;;;;;;17.63;5.03;;;;;;;19.44;40.38;96888.03;4960173;28;20209;-70
2023/09/25 06:21:12;;;;;;;5.70;4.07;;;;;;;18.65;41.96;96892.63;4965446;28;20413;-71
2023/09/25 06:23:39;;;;;;;6.50;4.23;;;;;;;19.98;40.03;96885.00;4965662;28;20858;-70
2023/09/25 06:26:06;;;;;;;6.23;4.03;;;;;;;19.87;39.66;96884.97;4965123;28;20457;-71
2023/09/25 06:28:32;;;;;;;4.90;4.33;;;;;;;18.74;41.85;96894.66;4964592;28;20449;-69
2023/09/25 06:30:58;;;;;;;5.33;4.37;;;;;;;19.70;40.62;96886.19;4965092;28;20413;-70
2023/09/25 06:33:23;;;;;;;5.40;4.20;;;;;;;19.57;40.65;96888.00;4965184;28;20409;-72
2023/09/25 06:35:49;;;;;;;8.40;5.00;;;;;;;19.97;39.97;96888.63;4965143;28;20200;-70
2023/09/25 06:38:15;;;;;;;5.93;4.77;;;;;;;18.10;44.12;96899.03;4964751;28;20211;-70
2023/09/25 06:40:45;;;;;;;7.53;4.60;;;;;;;17.31;46.04;96887.25;4965895;28;20180;-69
2023/09/25 06:43:12;;;;;;;5.70;4.37;;;;;;;17.14;47.14;96897.09;4967855;28;21194;-69
2023/09/25 06:45:41;;;;;;;6.27;4.60;;;;;;;17.29;46.38;96899.75;4967224;28;20412;-71
2023/09/25 06:48:07;;;;;;;6.73;4.37;;;;;;;18.81;43.36;96884.50;4967417;28;20901;-70
2023/09/25 06:50:33;;;;;;;5.90;5.30;;;;;;;17.81;45.04;96887.63;4967519;28;20409;-70
2023/09/25 06:52:58;;;;;;;5.07;4.47;;;;;;;17.53;45.83;96892.91;4967744;28;20162;-69
2023/09/25 06:55:24;;;;;;;6.93;5.30;;;;;;;17.83;45.48;96889.22;4967046;28;20401;-69
2023/09/25 06:57:50;;;;;;;8.17;5.63;;;;;;;17.99;44.84;96881.13;4966829;28;20205;-70
2023/09/25 07:00:17;;;;;;;7.93;4.80;;;;;;;18.24;44.80;96879.50;4967070;28;20173;-71
2023/09/25 07:02:43;;;;;;;6.50;4.77;;;;;;;18.59;43.84;96880.63;4967103;28;20416;-70
2023/09/25 07:05:09;;;;;;;5.20;4.53;;;;;;;17.26;46.51;96882.22;4967311;28;20417;-69
2023/09/25 07:07:36;;;;;;;6.30;4.70;;;;;;;17.40;47.07;96872.56;4966996;28;20217;-71
2023/09/25 07:10:06;;;;;;;10.13;5.10;;;;;;;16.60;48.94;96878.31;4967016;28;20413;-71
2023/09/25 07:12:33;;;;;;;5.00;4.50;;;;;;;16.68;49.13;96877.88;4967187;28;20401;-71
2023/09/25 07:15:00;;;;;;;8.53;5.83;;;;;;;16.47;49.29;96885.31;4966978;28;20555;-71
2023/09/25 07:17:26;;;;;;;8.53;4.60;;;;;;;16.54;49.78;96883.16;4966765;28;20448;-71
2023/09/25 07:19:52;;;;;;;11.07;5.50;;;;;;;17.21;47.76;96873.72;4966717;28;20412;-71
2023/09/25 07:22:18;;;;;;;21.60;6.97;;;;;;;17.89;46.41;96878.22;4967053;28;20439;-71
2023/09/25 07:24:43;;;;;;;5.93;5.07;;;;;;;17.57;46.85;96877.63;4967043;28;20177;-71
2023/09/25 07:27:09;;;;;;;5.30;4.67;;;;;;;17.53;46.83;96884.94;4966115;28;20228;-71
2023/09/25 07:29:36;;;;;;;5.43;4.73;;;;;;;16.99;48.40;96898.06;4966900;28;20694;-71
2023/09/25 07:32:02;;;;;;;5.30;4.80;;;;;;;16.04;50.97;96886.03;4967016;28;20181;-71
2023/09/25 07:34:29;;;;;;;6.37;5.27;;;;;;;15.83;51.76;96890.75;4967397;28;20416;-71
2023/09/25 07:36:54;;;;;;;7.43;5.43;;;;;;;16.26;51.06;96882.13;4966982;28;20744;-71
2023/09/25 07:39:22;;;;;;;12.63;6.33;;;;;;;17.51;48.37;96880.69;4967239;28;20445;-70
2023/09/25 07:41:49;;;;;;;6.67;4.40;;;;;;;17.48;47.76;96878.19;4967537;28;20197;-71
2023/09/25 07:44:16;;;;;;;5.33;4.83;;;;;;;16.90;49.19;96875.63;4967407;28;20507;-71
2023/09/25 07:46:43;;;;;;;10.97;6.40;;;;;;;16.46;50.73;96883.59;4966410;28;20844;-71
2023/09/25 07:49:09;;;;;;;7.17;5.17;;;;;;;16.51;51.06;96881.50;4966531;28;20504;-72
2023/09/25 07:51:34;;;;;;;8.53;4.63;;;;;;;16.94;49.96;96881.59;4966631;28;20413;-71
2023/09/25 07:54:02;;;;;;;7.13;5.03;;;;;;;16.07;51.82;96887.66;4966520;28;20174;-69
2023/09/25 07:56:28;;;;;;;17.17;5.37;;;;;;;17.14;50.22;96878.53;4966490;28;20213;-69
2023/09/25 07:58:55;;;;;;;6.77;5.20;;;;;;;17.19;49.62;96882.72;4966279;28;20472;-71
2023/09/25 08:01:22;;;;;;;7.93;5.77;;;;;;;17.59;48.50;96870.41;4966709;28;20174;-71
2023/09/25 08:03:51;;;;;;;11.27;5.50;;;;;;;17.18;49.30;96883.69;4970026;28;20963;-71
2023/09/25 08:06:19;;;;;;;8.43;5.50;;;;;;;17.13;49.92;96883.97;4970293;28;20464;-71
2023/09/25 08:08:45;;;;;;;6.13;4.77;;;;;;;16.65;51.71;96886.84;4970046;28;20446;-71
2023/09/25 08:11:10;;;;;;;7.93;5.50;;;;;;;17.59;49.35;96881.03;4970635;28;20515;-69
2023/09/25 08:13:36;;;;;;;8.93;5.63;;;;;;;17.30;50.15;96880.25;4970421;28;20503;-71
2023/09/25 08:16:05;;;;;;;7.70;6.90;;;;;;;17.50;49.75;96879.84;4969980;28;20182;-70
2023/09/25 08:18:30;;;;;;;14.80;6.17;;;;;;;17.18;50.75;96895.13;4962012;28;20761;-72
2023/09/25 08:20:56;;;;;;;4.77;4.37;;;;;;;17.46;49.32;96891.59;4970481;28;20423;-70
2023/09/25 08:23:21;;;;;;;11.30;5.07;;;;;;;17.21;50.00;96894.94;4970361;28;20180;-70
2023/09/25 08:25:47;;;;;;;5.87;4.73;;;;;;;17.51;49.97;96889.50;4969953;28;20526;-70
2023/09/25 08:28:14;;;;;;;6.17;4.93;;;;;;;17.32;50.29;96878.34;4969484;28;20272;-70
2023/09/25 08:30:40;;;;;;;7.23;5.40;;;;;;;17.11;50.41;96899.97;4970227;28;20165;-70
2023/09/25 08:33:05;;;;;;;8.60;5.17;;;;;;;17.02;50.98;96887.25;4970238;28;20500;-71
2023/09/25 08:35:30;;;;;;;6.53;5.93;;;;;;;17.65;49.59;96887.75;4969634;28;20427;-70
2023/09/25 08:37:56;;;;;;;8.57;5.23;;;;;;;17.50;50.65;96892.22;4969460;28;20560;-71
2023/09/25 08:40:21;;;;;;;13.97;5.83;;;;;;;17.82;49.56;96886.69;4970028;28;20223;-71
2023/09/25 08:42:48;;;;;;;8.83;5.90;;;;;;;17.35;50.77;96883.44;4969627;28;20177;-70
2023/09/25 08:45:15;;;;;;;10.83;4.90;;;;;;;18.62;48.07;96876.91;4969627;28;20180;-71
2023/09/25 08:47:42;;;;;;;7.67;5.10;;;;;;;18.52;47.72;96879.34;4969164;28;20492;-71
2023/09/25 08:50:09;;;;;;;5.60;4.63;;;;;;;18.05;49.16;96882.50;4969469;28;20421;-72
2023/09/25 08:52:34;;;;;;;53.63;10.03;;;;;;;18.29;49.27;96877.38;4969701;28;20479;-71
2023/09/25 08:55:00;;;;;;;9.73;5.63;;;;;;;18.55;48.21;96880.94;4969686;28;20413;-71
2023/09/25 08:57:25;;;;;;;16.93;5.10;;;;;;;18.43;48.53;96879.97;4968928;28;20202;-72
2023/09/25 08:59:51;;;;;;;11.73;5.20;;;;;;;19.09;47.47;96874.59;4969251;28;20256;-71
2023/09/25 09:02:16;;;;;;;6.20;5.13;;;;;;;18.28;47.96;96875.66;4969379;28;20866;-69
2023/09/25 09:04:42;;;;;;;11.63;6.77;;;;;;;18.82;47.95;96875.53;4969340;28;20228;-72
2023/09/25 09:07:09;;;;;;;9.63;5.07;;;;;;;18.65;47.93;96866.06;4968909;28;20213;-71
2023/09/25 09:09:35;;;;;;;15.47;5.00;;;;;;;19.10;46.84;96865.63;4968567;28;20580;-72
2023/09/25 09:12:01;;;;;;;6.43;4.37;;;;;;;18.60;47.52;96866.38;4969078;28;20749;-71
2023/09/25 09:14:36;;;;;;;13.63;5.03;;;;;;;18.81;47.36;96864.06;4968766;28;20975;-72
2023/09/25 09:17:04;;;;;;;8.80;4.53;;;;;;;18.52;48.13;96851.88;4969537;28;20421;-72
2023/09/25 09:19:53;;;;;;;8.17;4.53;;;;;;;19.30;46.45;96853.56;4969031;28;20470;-71
2023/09/25 09:22:21;;;;;;;6.30;4.70;;;;;;;18.63;48.21;96858.16;4968718;28;20452;-71
2023/09/25 09:24:49;;;;;;;4.50;3.97;;;;;;;18.44;47.76;96867.53;4968899;28;20409;-70
2023/09/25 09:27:20;;;;;;;5.63;4.30;;;;;;;18.15;49.18;96857.06;4967963;28;20504;-70
2023/09/25 09:29:46;;;;;;;6.23;5.00;;;;;;;18.22;48.81;96863.66;4968946;28;20416;-71
2023/09/25 09:32:14;;;;;;;4.20;3.80;;;;;;;18.25;48.57;96851.97;4968589;28;20412;-71
2023/09/25 09:34:40;;;;;;;6.37;4.20;;;;;;;18.51;48.57;96864.34;4968703;28;20413;-72
2023/09/25 09:37:09;;;;;;;6.00;4.53;;;;;;;18.49;48.10;96854.75;4968096;28;20413;-71
2023/09/25 09:39:36;;;;;;;5.20;4.27;;;;;;;18.81;48.02;96849.94;4960570;28;21273;-70
2023/09/25 09:42:04;;;;;;;6.60;4.53;;;;;;;18.51;48.31;96847.53;4969024;28;20409;-71
2023/09/25 09:44:30;;;;;;;5.40;4.43;;;;;;;18.03;48.90;96856.06;4968806;28;20417;-71
2023/09/25 09:46:55;;;;;;;4.63;4.23;;;;;;;18.33;48.36;96855.81;4969178;28;20564;-71
2023/09/25 09:49:23;;;;;;;5.80;4.60;;;;;;;18.74;46.90;96845.97;4969102;28;20515;-70
2023/09/25 09:51:50;;;;;;;4.70;3.87;;;;;;;18.39;48.10;96839.44;4970130;28;20170;-69
2023/09/25 09:54:18;;;;;;;4.90;3.50;;;;;;;18.95;47.15;96841.81;4968891;28;20432;-71
2023/09/25 09:56:48;;;;;;;4.13;3.20;;;;;;;18.40;47.11;96840.28;4968153;28;20503;-70
2023/09/25 09:59:17;;;;;;;7.07;3.53;;;;;;;18.46;47.05;96842.53;4968694;28;20440;-70
2023/09/25 10:01:50;;;;;;;5.20;3.80;;;;;;;18.54;46.94;96844.66;4968997;28;20413;-73
2023/09/25 10:04:15;;;;;;;5.40;3.67;;;;;;;18.99;46.04;96842.44;4968895;28;20417;-72
2023/09/25 10:07:05;;;;;;;5.37;3.77;;;;;;;18.19;47.08;96839.97;4968345;28;20456;-69
2023/09/25 10:09:32;;;;;;;6.23;5.10;;;;;;;18.66;47.25;96850.94;4969394;28;20190;-71
2023/09/25 10:11:58;;;;;;;7.53;3.90;;;;;;;18.48;47.67;96845.09;4968699;28;20437;-69
2023/09/25 10:14:26;;;;;;;4.30;3.17;;;;;;;19.10;46.30;96841.69;4968594;28;20453;-71
2023/09/25 10:16:52;;;;;;;10.93;3.47;;;;;;;19.75;45.13;96843.22;4968071;28;20420;-71
2023/09/25 10:19:22;;;;;;;4.50;3.23;;;;;;;19.24;45.03;96838.91;4967870;28;20425;-68
2023/09/25 10:22:12;;;;;;;4.93;3.50;;;;;;;19.44;44.43;96840.97;4968342;28;20507;-70
2023/09/25 10:24:40;;;;;;;8.93;4.87;;;;;;;19.22;44.78;96846.13;4967339;28;20456;-70
2023/09/25 10:27:06;;;;;;;3.90;2.67;;;;;;;19.35;44.78;96833.66;4967721;28;20471;-70
2023/09/25 10:29:31;;;;;;;4.80;3.10;;;;;;;19.26;45.04;96831.66;4968010;28;21226;-71
2023/09/25 10:31:57;;;;;;;3.70;3.10;;;;;;;19.30;44.91;96842.91;4968076;28;20169;-71
2023/09/25 10:34:25;;;;;;;3.30;3.00;;;;;;;19.39;45.02;96834.28;4968094;28;20208;-71
2023/09/25 10:36:56;;;;;;;4.97;3.20;;;;;;;18.91;45.55;96842.16;4967942;28;20409;-70
2023/09/25 10:39:25;;;;;;;11.73;3.67;;;;;;;19.66;44.59;96831.44;4968056;28;20428;-70
2023/09/25 10:42:07;;;;;;;8.83;3.00;;;;;;;19.48;45.08;96835.44;4968041;28;21014;-71
2023/09/25 10:44:35;;;;;;;8.00;2.80;;;;;;;19.80;44.11;96825.97;4968004;28;20413;-69
2023/09/25 10:47:07;;;;;;;4.87;3.20;;;;;;;19.68;43.52;96826.88;4967363;28;20453;-69
2023/09/25 10:49:39;;;;;;;6.00;3.47;;;;;;;19.44;43.07;96825.00;4967612;28;20490;-70
2023/09/25 10:52:05;;;;;;;4.13;2.77;;;;;;;19.05;43.50;96831.38;4967887;28;21168;-71
2023/09/25 10:54:31;;;;;;;4.93;2.90;;;;;;;19.20;43.98;96824.09;4967901;28;20492;-69
2023/09/25 10:56:59;;;;;;;11.07;3.30;;;;;;;19.18;45.06;96831.34;4967440;28;20220;-71
2023/09/25 10:59:25;;;;;;;5.40;3.30;;;;;;;19.52;44.26;96835.09;4967927;28;20177;-69
2023/09/25 11:01:51;;;;;;;3.97;2.73;;;;;;;19.82;43.56;96836.50;4967693;28;20423;-70
2023/09/25 11:04:17;;;;;;;3.93;2.33;;;;;;;20.46;42.53;96823.66;4967474;28;20978;-68
2023/09/25 11:06:43;;;;;;;4.47;3.10;;;;;;;20.80;41.69;96818.38;4967275;28;20499;-68
2023/09/25 11:09:11;;;;;;;5.00;3.10;;;;;;;20.82;41.05;96816.44;4967077;28;20798;-70
2023/09/25 11:11:40;;;;;;;3.83;2.53;;;;;;;19.95;42.70;96815.97;4967841;28;20412;-70
2023/09/25 11:14:06;;;;;;;8.47;3.03;;;;;;;19.88;43.32;96815.56;4967492;28;21000;-70
2023/09/25 11:16:33;;;;;;;4.67;2.83;;;;;;;20.04;43.26;96825.09;4967002;28;20427;-70
2023/09/25 11:19:12;;;;;;;3.60;2.87;;;;;;;19.90;43.56;96815.47;4967104;28;20346;-69
2023/09/25 11:21:39;;;;;;;4.13;2.90;;;;;;;20.04;43.20;96817.94;4967684;28;20926;-70
2023/09/25 11:24:09;;;;;;;3.83;2.70;;;;;;;19.98;43.33;96817.56;4967517;28;20829;-71
2023/09/25 11:26:39;;;;;;;5.43;2.70;;;;;;;20.00;43.22;96819.13;4967296;28;20461;-70
2023/09/25 11:29:08;;;;;;;3.50;3.20;;;;;;;19.88;43.44;96820.06;4967008;28;20452;-68